LEBL/BCN METAR and TAF weather

Enter ICAO airport designator
Station Type Date Time Source
LEBL METAR 2021/05/15 01:30 UTC NOAA

LEBL 150130Z 33003KT 300V360 9999 FEW015 14/11 Q1015 NOSIG


Station Type Date Time Source
LEBL Decoded METAR 2021/05/15 01:30 UTC NOAA

Barcelona / Aeropuerto, Spain (LEBL) 41-17N 002-04E 6M
May 14, 2021 - 09:30 PM EDT / 2021.05.15 0130 UTC
Wind: from the NNW (330 degrees) at 3 MPH (3 KT) (direction variable):0
Visibility: greater than 7 mile(s):0
Sky conditions: mostly clear
Temperature: 57 F (14 C)
Dew Point: 51 F (11 C)
Relative Humidity: 82%
Pressure (altimeter): 29.97 in. Hg (1015 hPa)
ob: LEBL 150130Z 33003KT 300V360 9999 FEW015 14/11 Q1015 NOSIG
cycle: 1

Station Type Date Time Source
LEBL TAF 2021/05/14 18:35 UTC NOAA

TAF
AMD LEBL 141826Z 1418/1518 34008KT 9999 FEW040 TX22/1512Z TN12/1506Z
TEMPO 1418/1424 VRB04KT
BECMG 1509/1511 22012KT
TEMPO 1512/1518 22015G25KT

Example: see airport list